AirNav   Phillips 66 Aviation Fuel
 
 914 users online  

FD58 St Luke's Hospital Heliport
Jacksonville, Florida, USA

GOING TO JACKSONVILLE?


FAA INFORMATION EFFECTIVE 14 SEPTEMBER 2017

Location

FAA Identifier: FD58
Lat/Long: 30-15-17.7100N / 081-34-59.0800W
30-15.295167N / 081-34.984667W
30.2549194 / -81.5830778
(estimated)
Elevation: 25 ft. / 8 m (estimated)
Variation: 03W (1986)
Time zone: UTC -4 (UTC -5 during Standard Time)
Zip code: 32216

Heliport Operations

Heliport use: Private use. Permission required prior to landing
Activation date: 03/1986
Control tower: no
ARTCC: JACKSONVILLE CENTER
FSS: GAINESVILLE FLIGHT SERVICE STATION
Attendance: CONTINUOUS
Wind indicator: lighted
Segmented circle: no

Heliport Communications

WX ASOS at CRG (6 nm NE): PHONE 904-646-4670
WX AWOS-3 at HEG (12 nm W): 119.275 (904-695-0334)
WX ASOS at JAX (15 nm N): PHONE 904-741-4304
WX AWOS-3 at VQQ (15 nm W): 125.275 (904-778-6934)

Nearby radio navigation aids

VOR radial/distance  VOR name  Freq  Var
CRGr220/6.3CRAIG VORTAC114.5003W
VQQr084/(16.2)CECIL VOR117.9003W
SGJr330/22.2ST AUGUSTINE VOR/DME109.4006W

 
NDB name  Hdg/Dist  Freq  Var  ID
REYNOLDS020/17.733807WRYD .-. -.-- -..

Heliport Services

Runway Information

Helipad H1

Dimensions: 60 x 60 ft. / 18 x 18 m
Surface: concrete
Latitude: 30-15.295167N
Longitude: 081-34.984667W
Elevation: 25.0 ft.
Traffic pattern: leftleft

Heliport Ownership and Management from official FAA records

Ownership: Privately-owned
Owner: ST. LUKE'S HOSPITAL
4201 BELFORT RD.
JACKSONVILLE, FL 32216
Phone 904-296-3700
Manager: GARY P. PEZALL
4201 BELFORT RD.
JACKSONVILLE, FL 32216
Phone 904-296-3749

Instrument Procedures

There are no published instrument procedures at FD58.

Some nearby airports with instrument procedures:

KNIP - Jacksonville Naval Air Station (Towers Field) (5 nm W)
KCRG - Jacksonville Executive Airport at Craig (6 nm NE)
KNRB - Mayport Naval Station (Adm David L. McDonald Field) (12 nm NE)
KHEG - Herlong Recreational Airport (12 nm W)
KJAX - Jacksonville International Airport (15 nm N)
KVQQ - Cecil Airport (15 nm W)
 
Loc | Ops | Rwys | IFR | FBO | Links
Com | Nav | Svcs | Stats | Notes


 
Area around FD58 (St Luke's Hospital Heliport)
 
Road maps at: MapQuest Bing Google
 
Aerial photo
No photo
 
Sectional chart

 
Airport distance calculator
Flying to St Luke's Hospital Heliport? Find the distance to fly.

From to FD58

Sunrise and sunset
Times for 25-Sep-2017
 Local
(UTC-4)
 Zulu
(UTC)
Morning civil twilight06:5310:53
Sunrise07:1711:17
Sunset19:1923:19
Evening civil twilight19:4323:43

Current date and time
Zulu (UTC)  26-Sep-2017 01:34:26
Local (UTC-4)  25-Sep-2017 21:34:26
 
METAR
KNIP 
5nm SW 
260053Z 06005KT 10SM CLR 27/21 A2988 RMK AO2 SLP113 T02670211
KCRG 
6nm NE 
260053Z 00000KT 10SM CLR 24/21 A2987 RMK AO2 SLP115 T02390211
KNRB 
12nm NE 
260052Z 06007KT 10SM FEW250 26/22 A2987 RMK AO2 SLP114 T02560222
KJAX 
16nm N 
260056Z 08003KT 10SM CLR 24/22 A2987 RMK AO2 SLP115 T02440222
KVQQ 
16nm W 
260050Z 07005KT 10SM CLR 25/22 A2987
TAF
KNIP 
5nm SW 
2523/2623 04008KT 9999 FEW060 FEW250 QNH2981INS FM260100 VRB04KT 9999 SKC QNH2982INS FM261800 36008KT 9999 FEW045 SCT250 QNH2980INS T24/2612Z T33/2620Z FN20016
KCRG 
6nm NE 
251947Z 2520/2618 07009KT P6SM SCT250 FM260000 04003KT P6SM SKC
KNRB 
12nm NE 
2523/2623 03008KT 9999 FEW250 QNH2982INS FM260300 VRB05KT 9999 SKC QNH2984INS FM261400 04010KT 9999 FEW030 FEW250 QNH2980INS AUTOMATED SENSOR METWATCH T21/2611Z T30/2619Z FN20022
KJAX 
16nm N 
252001Z 2520/2618 06007KT P6SM SCT250 FM260000 04003KT P6SM SKC
KVQQ 
16nm W 
252255Z 2523/2618 07007KT P6SM FEW050 FM260000 VRB02KT P6SM SKC FM261500 32006KT P6SM FEW035
NOTAMs
Click for the latest NOTAMs
NOTAMs are issued by the DoD/FAA and will open in a separate window not controlled by AirNav.

 

 
 

Would you like to see your business listed on this page?

 If your business provides an interesting product or service to pilots, flight crews, aircraft, or users of the St Luke's Hospital Heliport, you should consider listing it here.  To start the listing process, click on the button below
 
Add a business
 

Other Pages about St Luke's Hospital Heliport

Update a link
 
Copyright © AirNav, LLC. All rights reserved. Privacy Policy  Contact